Time;durP1;ratioP1;P1;durP2;ratioP2;P2;SDS_P1;SDS_P2;PMS_P1;PMS_P2;Temp;Humidity;BMP_temperature;BMP_pressure;BME280_temperature;BME280_humidity;BME280_pressure;Samples;Min_cycle;Max_cycle;Signal;HPM_P1;HPM_P2
2021/04/11 00:01:03;;;;;;;21.38;13.15;;;256.60;1305.60;;;;;;5069483;28;20369;-69
2021/04/11 00:03:30;;;;;;;19.27;11.80;;;256.60;1305.60;;;;;;5070934;28;20021;-69
2021/04/11 00:05:56;;;;;;;22.98;12.10;;;256.50;1305.60;;;;;;5069213;28;20029;-69
2021/04/11 00:08:23;;;;;;;21.95;11.57;;;256.60;1305.60;;;;;;5070981;28;20032;-69
2021/04/11 00:10:56;;;;;;;16.40;10.63;;;256.60;1305.60;;;;;;5070445;28;20021;-69
2021/04/11 00:13:29;;;;;;;16.17;10.70;;;256.50;1331.20;;;;;;5070425;28;20423;-69
2021/04/11 00:15:56;;;;;;;18.42;11.55;;;256.50;1331.20;;;;;;5069682;28;20025;-69
2021/04/11 00:18:22;;;;;;;21.17;11.57;;;256.50;1331.20;;;;;;5063204;28;20033;-69
2021/04/11 00:20:47;;;;;;;20.13;11.48;;;256.40;1356.80;;;;;;5071069;28;20478;-69
2021/04/11 00:23:13;;;;;;;17.15;11.77;;;256.40;1356.80;;;;;;5071290;28;20020;-69
2021/04/11 00:25:40;;;;;;;23.60;11.88;;;256.40;1356.80;;;;;;5071714;28;20032;-69
2021/04/11 00:28:11;;;;;;;17.15;11.40;;;256.40;1356.80;;;;;;5072625;28;20038;-69
2021/04/11 00:30:38;;;;;;;21.90;11.30;;;256.30;1356.80;;;;;;5074467;28;20024;-69
2021/04/11 00:33:06;;;;;;;19.75;10.82;;;256.20;1356.80;;;;;;5086393;28;20063;-70
2021/04/11 00:35:33;;;;;;;22.35;11.13;;;256.20;1356.80;;;;;;5079052;28;20032;-70
2021/04/11 00:37:59;;;;;;;18.20;10.35;;;256.20;1356.80;;;;;;5084484;28;20021;-70
2021/04/11 00:40:28;;;;;;;12.55;9.50;;;256.10;1356.80;;;;;;5075229;28;20073;-70
2021/04/11 00:43:04;;;;;;;16.00;10.48;;;256.10;1356.80;;;;;;5073937;28;20403;-69
2021/04/11 00:45:44;;;;;;;22.77;11.77;;;256.10;1356.80;;;;;;5073843;28;20021;-70
2021/04/11 00:48:11;;;;;;;16.10;10.00;;;256.10;1356.80;;;;;;5071454;28;20079;-70
2021/04/11 00:50:37;;;;;;;17.42;10.02;;;256.10;1382.40;;;;;;5075048;28;20023;-70
2021/04/11 00:53:07;;;;;;;22.48;12.10;;;256.00;1382.40;;;;;;5074595;28;20548;-70
2021/04/11 00:55:33;;;;;;;17.70;11.48;;;256.00;1382.40;;;;;;5081791;28;20505;-70
2021/04/11 00:57:59;;;;;;;21.63;12.13;;;256.00;1382.40;;;;;;5088036;28;20046;-70
2021/04/11 01:00:33;;;;;;;18.25;11.75;;;256.00;1408.00;;;;;;5094194;28;20028;-69
2021/04/11 01:02:59;;;;;;;23.40;12.82;;;256.00;1408.00;;;;;;5080066;28;20029;-70
2021/04/11 01:05:32;;;;;;;21.35;11.52;;;231.30;1408.00;;;;;;5085763;28;20033;-70
2021/04/11 01:08:01;;;;;;;19.02;12.07;;;231.20;1433.60;;;;;;5074994;28;20060;-69
2021/04/11 01:10:32;;;;;;;34.20;12.32;;;231.20;1433.60;;;;;;5074467;28;20467;-69
2021/04/11 01:12:58;;;;;;;20.05;12.75;;;231.10;1433.60;;;;;;5075145;28;20020;-69
2021/04/11 01:15:27;;;;;;;22.05;12.07;;;231.00;1433.60;;;;;;5074682;28;20029;-70
2021/04/11 01:17:53;;;;;;;18.67;12.10;;;230.90;1459.20;;;;;;5078216;28;20478;-69
2021/04/11 01:20:20;;;;;;;18.15;12.10;;;230.80;1459.20;;;;;;5073976;28;20032;-69
2021/04/11 01:23:11;;;;;;;19.75;12.65;;;230.80;1484.80;;;;;;5079040;28;20034;-69
2021/04/11 01:25:39;;;;;;;23.90;12.27;;;230.70;1484.80;;;;;;5074242;28;20033;-69
2021/04/11 01:28:17;;;;;;;14.48;11.52;;;230.60;1510.40;;;;;;5069082;28;20082;-69
2021/04/11 01:30:45;;;;;;;25.33;11.60;;;230.60;1536.00;;;;;;5079912;28;20024;-69
2021/04/11 01:33:21;;;;;;;18.27;12.07;;;230.50;1510.40;;;;;;5074021;28;20024;-69
2021/04/11 01:35:50;;;;;;;15.52;10.95;;;205.70;1536.00;;;;;;5073855;28;20064;-69
2021/04/11 01:38:16;;;;;;;18.95;12.15;;;230.40;1536.00;;;;;;5073859;28;20114;-70
2021/04/11 01:41:00;;;;;;;15.82;11.05;;;205.70;1561.60;;;;;;5073187;28;20028;-70
2021/04/11 01:43:26;;;;;;;20.15;12.63;;;205.60;1587.20;;;;;;5074028;28;20025;-70
2021/04/11 01:45:53;;;;;;;18.55;12.15;;;205.60;1587.20;;;;;;5073779;28;20103;-69
2021/04/11 01:48:20;;;;;;;19.65;11.50;;;205.50;1587.20;;;;;;5073315;28;20157;-70
2021/04/11 01:50:47;;;;;;;18.65;11.52;;;205.50;1612.80;;;;;;5072094;28;20025;-70
2021/04/11 01:53:15;;;;;;;19.55;11.98;;;205.40;1612.80;;;;;;5073006;28;20025;-70
2021/04/11 01:55:42;;;;;;;16.73;11.73;;;205.40;1612.80;;;;;;5071878;28;20044;-70
2021/04/11 01:58:09;;;;;;;19.58;12.35;;;205.40;1638.40;;;;;;5072624;28;20036;-70
2021/04/11 02:00:48;;;;;;;27.50;14.95;;;205.30;1638.40;;;;;;5073145;28;20099;-69
2021/04/11 02:03:18;;;;;;;26.40;14.93;;;205.30;1638.40;;;;;;5068552;28;20543;-70
2021/04/11 02:05:47;;;;;;;28.13;15.15;;;205.30;1638.40;;;;;;5073482;28;20029;-70
2021/04/11 02:08:22;;;;;;;21.48;12.30;;;205.20;1638.40;;;;;;5073737;28;20056;-70
2021/04/11 02:10:51;;;;;;;19.38;11.02;;;205.20;1638.40;;;;;;5073423;28;20028;-70
2021/04/11 02:13:20;;;;;;;15.30;10.52;;;205.20;1638.40;;;;;;5072992;28;20036;-70
2021/04/11 02:15:50;;;;;;;19.67;11.65;;;205.20;1638.40;;;;;;5073176;28;20032;-70
2021/04/11 02:18:17;;;;;;;20.45;10.85;;;205.20;1638.40;;;;;;5073096;28;20055;-70
2021/04/11 02:20:43;;;;;;;18.95;12.90;;;205.20;1664.00;;;;;;5071462;28;20028;-70
2021/04/11 02:23:11;;;;;;;16.33;10.43;;;205.10;1638.40;;;;;;5072878;28;20024;-70
2021/04/11 02:25:42;;;;;;;16.33;10.30;;;205.10;1638.40;;;;;;5072575;28;20523;-69
2021/04/11 02:28:11;;;;;;;16.58;9.45;;;205.00;1664.00;;;;;;5071940;28;20438;-70
2021/04/11 02:30:44;;;;;;;19.20;9.70;;;205.10;1664.00;;;;;;5072595;28;20051;-70
2021/04/11 02:33:10;;;;;;;15.25;9.48;;;205.00;1664.00;;;;;;5071537;28;20028;-70
2021/04/11 02:35:36;;;;;;;13.00;10.18;;;205.00;1664.00;;;;;;5072189;28;20032;-69
2021/04/11 02:38:03;;;;;;;17.52;10.32;;;205.00;1664.00;;;;;;5072521;28;20088;-70
2021/04/11 02:40:39;;;;;;;17.80;9.77;;;205.00;1664.00;;;;;;5072117;28;20531;-69
2021/04/11 02:43:07;;;;;;;18.05;12.10;;;204.90;1664.00;;;;;;5078558;28;20821;-69
2021/04/11 02:45:39;;;;;;;17.48;9.98;;;204.80;1689.60;;;;;;5075394;28;20111;-69
2021/04/11 02:48:11;;;;;;;12.57;9.43;;;204.80;1664.00;;;;;;5073842;28;20063;-69
2021/04/11 02:50:38;;;;;;;18.42;8.93;;;204.80;1689.60;;;;;;5073009;28;20051;-69
2021/04/11 02:53:09;;;;;;;25.23;10.23;;;204.80;1689.60;;;;;;5072265;28;20033;-69
2021/04/11 02:55:39;;;;;;;16.17;9.90;;;204.80;1689.60;;;;;;5076818;28;20730;-69
2021/04/11 02:58:05;;;;;;;21.42;11.27;;;204.80;1689.60;;;;;;5078543;28;20088;-69
2021/04/11 03:00:35;;;;;;;14.13;9.77;;;204.80;1715.20;;;;;;5075308;28;20102;-69
2021/04/11 03:03:01;;;;;;;18.52;11.90;;;180.10;1715.20;;;;;;5075686;28;20037;-69
2021/04/11 03:05:28;;;;;;;21.20;11.45;;;180.00;1715.20;;;;;;5084342;28;20024;-69
2021/04/11 03:08:00;;;;;;;16.58;10.63;;;179.50;1766.40;;;;;;5076045;28;20024;-69
2021/04/11 03:10:40;;;;;;;20.45;11.15;;;179.40;1792.00;;;;;;5075612;28;20027;-69
2021/04/11 03:13:06;;;;;;;22.48;10.13;;;179.60;1792.00;;;;;;5067669;28;20067;-69
2021/04/11 03:15:32;;;;;;;17.63;11.30;;;179.70;1792.00;;;;;;5072655;28;20136;-69
2021/04/11 03:17:59;;;;;;;15.63;10.60;;;179.70;1766.40;;;;;;5078586;28;20016;-69
2021/04/11 03:20:36;;;;;;;17.65;11.05;;;179.80;1766.40;;;;;;5079007;28;20012;-69
2021/04/11 03:23:05;;;;;;;20.00;11.73;;;179.80;1766.40;;;;;;5064336;28;20455;-69
2021/04/11 03:25:33;;;;;;;19.67;11.65;;;179.80;1766.40;;;;;;5075997;28;20375;-69
2021/04/11 03:28:10;;;;;;;18.17;11.15;;;179.80;1766.40;;;;;;5091220;28;20122;-70
2021/04/11 03:30:45;;;;;;;17.08;10.40;;;179.80;1766.40;;;;;;5086075;28;20115;-70
2021/04/11 03:33:15;;;;;;;13.82;10.32;;;179.80;1766.40;;;;;;5070108;28;20028;-70
2021/04/11 03:35:46;;;;;;;18.60;12.52;;;179.70;1766.40;;;;;;5072073;28;20028;-71
2021/04/11 03:38:14;;;;;;;19.85;12.15;;;179.70;1766.40;;;;;;5072390;28;20020;-70
2021/04/11 03:40:42;;;;;;;16.48;11.45;;;179.60;1766.40;;;;;;5071256;28;20518;-70
2021/04/11 03:43:23;;;;;;;20.50;11.10;;;179.60;1792.00;;;;;;5073147;28;20099;-70
2021/04/11 03:45:48;;;;;;;18.27;11.77;;;179.70;1766.40;;;;;;5058552;28;20417;-70
2021/04/11 03:48:24;;;;;;;20.80;12.35;;;179.60;1766.40;;;;;;5079538;28;20032;-70
2021/04/11 03:51:36;;;;;;;18.63;12.93;;;179.60;1766.40;;;;;;5087280;28;20119;-70
2021/04/11 03:54:08;;;;;;;23.40;13.05;;;179.70;1792.00;;;;;;5060770;28;20052;-69
2021/04/11 03:56:45;;;;;;;16.08;12.73;;;179.60;1792.00;;;;;;5072162;28;20033;-69
2021/04/11 03:59:18;;;;;;;19.98;13.20;;;179.60;1792.00;;;;;;5059731;28;20021;-70
2021/04/11 04:01:51;;;;;;;21.55;12.52;;;179.60;1792.00;;;;;;5086417;28;20031;-70
2021/04/11 04:04:19;;;;;;;21.75;11.50;;;179.70;1792.00;;;;;;5082115;28;20024;-70
2021/04/11 04:07:00;;;;;;;18.77;11.85;;;179.70;1792.00;;;;;;5083638;28;20099;-69
2021/04/11 04:09:27;;;;;;;17.38;11.75;;;179.70;1766.40;;;;;;5087685;28;20836;-70
2021/04/11 04:12:30;;;;;;;19.83;11.98;;;179.70;1766.40;;;;;;5072016;28;20029;-70
2021/04/11 04:15:32;;;;;;;15.13;10.55;;;179.70;1766.40;;;;;;5029535;28;20553;-70
2021/04/11 04:18:08;;;;;;;17.42;11.07;;;179.80;1766.40;;;;;;5017174;28;20505;-70
2021/04/11 04:20:59;;;;;;;19.05;10.88;;;179.80;1766.40;;;;;;5028883;28;20045;-69
2021/04/11 04:23:50;;;;;;;19.15;10.77;;;179.90;1740.80;;;;;;5029110;28;20029;-69
2021/04/11 04:26:34;;;;;;;23.85;13.45;;;179.90;1740.80;;;;;;4950665;28;20051;-69
2021/04/11 04:29:30;;;;;;;15.73;11.48;;;179.90;1740.80;;;;;;4934252;29;20192;-69
2021/04/11 04:32:24;;;;;;;18.45;11.32;;;180.00;1740.80;;;;;;4934401;29;20483;-69
2021/04/11 04:35:12;;;;;;;21.05;12.27;;;180.00;1715.20;;;;;;4947809;29;20039;-69
2021/04/11 04:37:43;;;;;;;30.52;18.50;;;180.00;1715.20;;;;;;4949026;29;20142;-70
2021/04/11 04:40:33;;;;;;;28.77;17.50;;;180.10;1715.20;;;;;;4944131;29;20459;-69
2021/04/11 04:43:11;;;;;;;23.02;13.45;;;180.10;1689.60;;;;;;4893607;29;20429;-70
2021/04/11 04:45:57;;;;;;;21.17;12.27;;;204.90;1689.60;;;;;;4877577;29;20040;-70
2021/04/11 04:48:56;;;;;;;17.83;10.50;;;205.00;1664.00;;;;;;4893233;29;20036;-69
2021/04/11 04:51:33;;;;;;;16.70;10.48;;;205.20;1638.40;;;;;;4910457;29;20028;-69
2021/04/11 04:54:03;;;;;;;13.77;10.27;;;205.40;1638.40;;;;;;4936889;29;20047;-71
2021/04/11 04:56:38;;;;;;;16.85;9.10;;;205.50;1612.80;;;;;;4942885;29;20044;-70
2021/04/11 04:59:13;;;;;;;21.88;14.52;;;205.60;1587.20;;;;;;4939954;29;20372;-69
2021/04/11 05:02:03;;;;;;;29.40;14.90;;;205.70;1587.20;;;;;;4935439;29;20078;-69
2021/04/11 05:04:32;;;;;;;25.42;13.43;;;230.40;1587.20;;;;;;5029053;28;20278;-70
2021/04/11 05:07:04;;;;;;;22.42;12.98;;;230.50;1561.60;;;;;;5027941;28;20037;-70
2021/04/11 05:09:41;;;;;;;21.80;11.70;;;230.70;1587.20;;;;;;5027893;28;20100;-69
2021/04/11 05:12:21;;;;;;;15.02;9.00;;;230.70;1536.00;;;;;;5011944;28;20025;-69
2021/04/11 05:14:56;;;;;;;18.83;11.32;;;230.70;1536.00;;;;;;5028384;28;20034;-69
2021/04/11 05:17:30;;;;;;;21.23;13.23;;;230.80;1536.00;;;;;;5033843;28;20033;-69
2021/04/11 05:20:23;;;;;;;20.35;12.93;;;230.90;1510.40;;;;;;5050317;28;20086;-69
2021/04/11 05:22:51;;;;;;;19.60;13.85;;;230.90;1510.40;;;;;;5015143;28;20119;-70
2021/04/11 05:25:38;;;;;;;19.10;11.00;;;231.00;1536.00;;;;;;5031297;28;20050;-70
2021/04/11 05:28:15;;;;;;;19.65;12.20;;;231.10;1510.40;;;;;;5025613;28;20072;-70
2021/04/11 05:30:58;;;;;;;15.88;9.25;;;231.00;1536.00;;;;;;5031534;28;20052;-70
2021/04/11 05:33:25;;;;;;;16.70;8.80;;;231.00;1536.00;;;;;;5031341;28;20412;-70
2021/04/11 05:36:01;;;;;;;14.32;9.00;;;231.10;1536.00;;;;;;5031396;28;20033;-70
2021/04/11 05:38:50;;;;;;;21.17;11.13;;;231.20;1536.00;;;;;;5031379;28;20022;-70
2021/04/11 05:41:24;;;;;;;15.50;10.70;;;231.30;1536.00;;;;;;5023501;28;20149;-70
2021/04/11 05:44:09;;;;;;;16.45;10.40;;;256.00;1536.00;;;;;;5031452;28;20029;-70
2021/04/11 05:46:45;;;;;;;25.98;10.45;;;256.10;1536.00;;;;;;5029771;28;20087;-69
2021/04/11 05:49:18;;;;;;;27.83;13.10;;;256.30;1536.00;;;;;;5031356;28;20033;-70
2021/04/11 05:51:49;;;;;;;16.77;10.23;;;256.40;1510.40;;;;;;5031277;28;20052;-70
2021/04/11 05:54:53;;;;;;;22.17;12.40;;;256.60;1510.40;;;;;;5033063;28;20445;-70
2021/04/11 05:57:27;;;;;;;16.23;10.45;;;256.80;1484.80;;;;;;4950960;28;20035;-69
2021/04/11 06:00:20;;;;;;;21.20;11.68;;;281.70;1484.80;;;;;;4973679;28;20088;-69
2021/04/11 06:02:51;;;;;;;15.57;8.88;;;282.00;1459.20;;;;;;4991481;28;20022;-69
2021/04/11 06:05:37;;;;;;;17.63;8.05;;;282.30;1408.00;;;;;;4990826;28;20066;-69
2021/04/11 06:08:05;;;;;;;13.60;8.35;;;307.20;1382.40;;;;;;4993328;28;20022;-69
2021/04/11 06:10:38;;;;;;;15.48;8.85;;;307.50;1356.80;;;;;;4993511;28;20838;-69
2021/04/11 06:13:26;;;;;;;14.73;8.00;;;307.80;1331.20;;;;;;4994628;28;20096;-69
2021/04/11 06:16:02;;;;;;;10.07;7.50;;;308.00;1305.60;;;;;;4992077;28;20026;-69
2021/04/11 06:18:28;;;;;;;14.70;7.85;;;333.00;1331.20;;;;;;4991614;28;20031;-69
2021/04/11 06:20:55;;;;;;;14.27;8.95;;;333.10;1305.60;;;;;;4995498;28;20068;-70
2021/04/11 06:23:49;;;;;;;25.92;8.80;;;333.40;1280.00;;;;;;4990225;28;20033;-70
2021/04/11 06:26:23;;;;;;;13.48;7.72;;;333.70;1203.20;;;;;;4992360;28;20030;-70
2021/04/11 06:29:14;;;;;;;13.80;7.88;;;358.50;1152.00;;;;;;4996179;28;20132;-70
2021/04/11 06:31:52;;;;;;;18.70;10.07;;;358.50;1126.40;;;;;;5049466;28;20044;-70
2021/04/11 06:34:26;;;;;;;20.33;11.65;;;358.60;1152.00;;;;;;5088151;28;20032;-70
2021/04/11 06:36:56;;;;;;;15.55;8.10;;;358.90;1126.40;;;;;;5082967;28;20433;-70
2021/04/11 06:39:29;;;;;;;14.73;7.90;;;359.00;1100.80;;;;;;5074256;28;20020;-71
2021/04/11 06:42:17;;;;;;;22.73;11.27;;;359.10;1100.80;;;;;;5072999;28;20028;-69
2021/04/11 06:44:58;;;;;;;14.50;8.77;;;359.30;1126.40;;;;;;5071603;28;20044;-69
2021/04/11 06:47:58;;;;;;;10.98;7.72;;;384.20;1100.80;;;;;;5079351;28;20103;-70
2021/04/11 06:51:06;;;;;;;13.05;7.75;;;384.70;1075.20;;;;;;5072286;28;20581;-70
2021/04/11 06:53:45;;;;;;;16.02;7.38;;;384.80;1049.60;;;;;;5071716;28;20032;-70
2021/04/11 06:57:09;;;;;;;11.90;6.43;;;409.60;1075.20;;;;;;5070165;28;20024;-69
2021/04/11 06:59:53;;;;;;;21.75;10.20;;;409.90;1049.60;;;;;;5019741;28;20050;-69
2021/04/11 07:02:35;;;;;;;19.27;10.10;;;410.10;1049.60;;;;;;5029899;28;20057;-70
2021/04/11 07:05:26;;;;;;;16.23;7.82;;;410.10;1049.60;;;;;;5029612;28;20461;-69
2021/04/11 07:08:30;;;;;;;13.75;7.47;;;410.30;1024.00;;;;;;5029948;28;20034;-69
2021/04/11 07:11:17;;;;;;;20.50;12.60;;;435.20;1024.00;;;;;;4999051;28;20049;-69
2021/04/11 07:14:16;;;;;;;12.25;8.65;;;435.40;1024.00;;;;;;4992881;28;20071;-69
2021/04/11 07:17:20;;;;;;;17.50;9.68;;;435.40;1024.00;;;;;;4998103;28;20041;-70
2021/04/11 07:20:13;;;;;;;11.23;7.30;;;435.70;972.80;;;;;;4959277;28;20046;-70
2021/04/11 07:22:50;;;;;;;13.13;7.75;;;436.10;947.20;;;;;;4963094;28;20134;-69
2021/04/11 07:25:39;;;;;;;13.65;8.40;;;461.00;972.80;;;;;;4961472;28;20031;-69
2021/04/11 07:28:23;;;;;;;11.82;7.65;;;461.20;947.20;;;;;;4960656;28;20043;-69
2021/04/11 07:31:00;;;;;;;12.32;7.40;;;460.80;972.80;;;;;;4969052;28;20035;-71
2021/04/11 07:33:43;;;;;;;10.38;7.85;;;460.80;972.80;;;;;;4968567;28;20030;-70
2021/04/11 07:36:22;;;;;;;12.10;7.72;;;460.80;947.20;;;;;;4968322;28;20049;-69
2021/04/11 07:39:15;;;;;;;13.55;10.10;;;461.10;947.20;;;;;;4968284;28;20070;-69
2021/04/11 07:42:07;;;;;;;18.27;9.77;;;461.10;947.20;;;;;;4977547;28;20044;-67
2021/04/11 07:44:51;;;;;;;12.60;8.70;;;461.60;947.20;;;;;;5012768;28;20100;-69
2021/04/11 07:47:38;;;;;;;11.85;7.35;;;486.70;921.60;;;;;;5016758;28;20037;-69
2021/04/11 07:50:22;;;;;;;;;;;486.70;921.60;;;;;;5012446;28;20038;-70
2021/04/11 07:53:06;;;;;;;11.23;7.93;;;487.00;896.00;;;;;;5012093;28;19913;-68
2021/04/11 07:56:08;;;;;;;13.60;7.72;;;487.10;896.00;;;;;;5048742;28;20585;-69
2021/04/11 07:58:52;;;;;;;17.35;9.68;;;486.90;896.00;;;;;;5081810;28;20028;-68
2021/04/11 08:02:00;;;;;;;10.30;7.20;;;486.70;921.60;;;;;;5081429;28;20044;-69
2021/04/11 08:04:34;;;;;;;10.00;7.60;;;486.50;921.60;;;;;;5012285;28;20050;-70
2021/04/11 08:07:26;;;;;;;13.85;8.15;;;487.00;921.60;;;;;;5018878;28;20025;-72
2021/04/11 08:10:19;;;;;;;12.63;7.50;;;512.30;870.40;;;;;;4998694;28;20096;-70
2021/04/11 08:13:22;;;;;;;10.60;6.32;;;512.30;844.80;;;;;;5007209;28;20038;-70
2021/04/11 08:16:21;;;;;;;10.80;5.68;;;512.00;870.40;;;;;;5005410;28;20054;-72
2021/04/11 08:19:19;;;;;;;9.75;5.97;;;487.10;870.40;;;;;;5010900;28;20026;-72
2021/04/11 08:21:58;;;;;;;14.35;6.18;;;486.90;870.40;;;;;;5010351;28;20041;-71
2021/04/11 08:24:45;;;;;;;9.60;6.65;;;486.90;896.00;;;;;;5009913;28;20061;-71
2021/04/11 08:27:49;;;;;;;13.95;6.65;;;486.50;921.60;;;;;;5004199;28;20038;-71
2021/04/11 08:30:40;;;;;;;13.18;7.82;;;486.60;921.60;;;;;;4995526;28;20046;-71
2021/04/11 08:33:24;;;;;;;12.18;7.00;;;487.20;896.00;;;;;;5018516;28;20472;-72
2021/04/11 08:36:11;;;;;;;14.45;6.30;;;512.30;870.40;;;;;;4998448;28;20120;-72
2021/04/11 08:39:01;;;;;;;8.18;5.30;;;512.50;870.40;;;;;;5009612;28;20393;-71
2021/04/11 08:41:45;;;;;;;8.27;4.95;;;512.90;819.20;;;;;;5065151;28;20032;-71
2021/04/11 08:44:35;;;;;;;10.75;6.00;;;538.30;819.20;;;;;;5076353;28;20078;-71
2021/04/11 08:47:10;;;;;;;11.90;5.43;;;563.50;819.20;;;;;;5093783;28;20758;-71
2021/04/11 08:50:03;;;;;;;10.93;6.57;;;563.30;819.20;;;;;;5077650;28;20124;-73
2021/04/11 08:53:11;;;;;;;11.80;6.75;;;563.50;819.20;;;;;;5080650;28;20036;-71
2021/04/11 08:55:46;;;;;;;8.23;5.55;;;563.40;819.20;;;;;;5015151;28;20050;-71
2021/04/11 08:58:48;;;;;;;10.97;6.50;;;563.40;793.60;;;;;;5010910;28;20062;-71
2021/04/11 09:01:35;;;;;;;9.65;5.80;;;564.00;793.60;;;;;;5010659;28;20088;-71
2021/04/11 09:04:27;;;;;;;7.80;5.05;;;589.00;768.00;;;;;;5013168;28;20026;-71
2021/04/11 09:07:25;;;;;;;11.50;5.53;;;589.10;742.40;;;;;;5016927;28;20042;-71
2021/04/11 09:10:00;;;;;;;10.95;5.60;;;589.30;742.40;;;;;;5022287;28;20038;-71
2021/04/11 09:13:10;;;;;;;8.57;5.65;;;589.60;716.80;;;;;;5011595;28;20037;-71
2021/04/11 09:16:16;;;;;;;9.80;5.57;;;614.50;742.40;;;;;;4974684;28;20031;-70
2021/04/11 09:18:50;;;;;;;15.52;7.80;;;589.70;742.40;;;;;;4976691;28;20081;-70
2021/04/11 09:21:40;;;;;;;12.80;6.15;;;589.60;716.80;;;;;;4970462;28;20141;-70
2021/04/11 09:24:34;;;;;;;10.40;5.50;;;614.70;742.40;;;;;;4982615;28;20050;-72
2021/04/11 09:27:06;;;;;;;7.75;4.72;;;614.60;742.40;;;;;;4963025;28;20035;-70
2021/04/11 09:29:52;;;;;;;8.65;5.93;;;614.80;716.80;;;;;;4977464;28;20073;-72
2021/04/11 09:32:39;;;;;;;9.77;5.40;;;589.40;742.40;;;;;;5020006;28;20032;-70
2021/04/11 09:35:42;;;;;;;10.93;5.72;;;589.00;716.80;;;;;;5056928;28;20050;-70
2021/04/11 09:38:26;;;;;;;13.25;5.82;;;589.20;742.40;;;;;;4965780;28;20110;-69
2021/04/11 09:40:52;;;;;;;13.27;7.97;;;589.50;742.40;;;;;;4953988;28;20097;-69
2021/04/11 09:43:41;;;;;;;11.02;7.35;;;589.30;742.40;;;;;;4968285;28;20035;-71
2021/04/11 09:46:24;;;;;;;12.05;5.45;;;589.30;716.80;;;;;;4964088;28;20031;-70
2021/04/11 09:48:56;;;;;;;8.13;4.70;;;589.40;716.80;;;;;;4963996;28;20500;-70
2021/04/11 09:51:42;;;;;;;8.45;5.90;;;589.50;742.40;;;;;;4968387;28;20079;-71
2021/04/11 09:54:31;;;;;;;9.15;4.97;;;614.70;691.20;;;;;;4967523;28;20050;-69
2021/04/11 09:57:15;;;;;;;7.15;4.93;;;615.20;691.20;;;;;;4932542;29;20074;-71
2021/04/11 09:59:55;;;;;;;14.57;8.05;;;640.10;665.60;;;;;;4931703;29;20419;-70
2021/04/11 10:02:35;;;;;;;8.52;4.70;;;640.30;665.60;;;;;;4931242;29;20040;-71
2021/04/11 10:05:19;;;;;;;10.23;5.30;;;640.00;665.60;;;;;;4916701;29;20044;-70
2021/04/11 10:08:22;;;;;;;8.95;5.68;;;640.00;665.60;;;;;;4932335;29;20040;-71
2021/04/11 10:11:03;;;;;;;7.78;4.78;;;615.20;691.20;;;;;;4916421;29;20078;-71
2021/04/11 10:14:15;;;;;;;8.15;5.35;;;614.70;691.20;;;;;;5051438;28;20039;-70
2021/04/11 10:16:58;;;;;;;8.60;4.28;;;614.80;665.60;;;;;;4970206;28;20398;-71
2021/04/11 10:19:32;;;;;;;10.68;5.43;;;589.60;716.80;;;;;;4972579;28;20135;-71
2021/04/11 10:22:25;;;;;;;10.15;5.70;;;589.20;716.80;;;;;;4969580;28;20035;-72
2021/04/11 10:25:19;;;;;;;9.40;4.57;;;589.70;691.20;;;;;;4968809;28;20145;-72
2021/04/11 10:28:06;;;;;;;7.97;4.97;;;589.30;716.80;;;;;;4969660;28;20105;-70
2021/04/11 10:30:34;;;;;;;10.30;5.97;;;614.40;691.20;;;;;;4970122;28;20030;-70
2021/04/11 10:33:22;;;;;;;7.75;5.00;;;614.90;691.20;;;;;;4971991;28;20462;-70
2021/04/11 10:36:05;;;;;;;5.85;4.07;;;615.10;691.20;;;;;;4989624;28;20034;-70
2021/04/11 10:38:44;;;;;;;8.15;4.78;;;615.30;665.60;;;;;;4985770;28;20458;-71
2021/04/11 10:41:14;;;;;;;11.25;5.10;;;640.30;640.00;;;;;;4990033;28;20091;-72
2021/04/11 10:44:07;;;;;;;7.20;3.88;;;640.60;640.00;;;;;;4973637;28;20038;-72
2021/04/11 10:46:59;;;;;;;6.95;5.07;;;640.80;614.40;;;;;;4972239;28;20120;-71
2021/04/11 10:49:34;;;;;;;7.63;4.13;;;665.60;665.60;;;;;;4964425;28;20038;-72
2021/04/11 10:52:03;;;;;;;7.35;4.60;;;665.60;640.00;;;;;;4985608;28;20027;-72
2021/04/11 10:54:53;;;;;;;6.00;3.50;;;640.30;640.00;;;;;;5060278;28;20050;-72
2021/04/11 10:57:38;;;;;;;9.32;5.90;;;665.60;640.00;;;;;;5057469;28;20063;-71
2021/04/11 11:00:13;;;;;;;16.98;6.88;;;665.70;640.00;;;;;;5075113;28;20051;-72
2021/04/11 11:03:07;;;;;;;10.52;7.80;;;665.70;640.00;;;;;;5059162;28;20021;-71
2021/04/11 11:05:36;;;;;;;7.75;4.30;;;665.90;640.00;;;;;;5055981;28;20013;-71
2021/04/11 11:08:11;;;;;;;6.93;4.25;;;640.30;665.60;;;;;;5075016;28;20132;-72
2021/04/11 11:10:52;;;;;;;6.95;4.82;;;615.10;665.60;;;;;;5074295;28;20032;-71
2021/04/11 11:13:59;;;;;;;8.50;4.43;;;615.00;665.60;;;;;;5059293;28;20036;-72
2021/04/11 11:16:52;;;;;;;9.07;4.88;;;589.50;691.20;;;;;;5039386;28;20098;-72
2021/04/11 11:20:11;;;;;;;5.88;4.57;;;589.70;691.20;;;;;;5038367;28;20059;-72
2021/04/11 11:22:42;;;;;;;7.80;4.13;;;589.60;691.20;;;;;;4967576;28;20406;-72
2021/04/11 11:25:22;;;;;;;13.70;4.35;;;614.40;691.20;;;;;;4972181;28;20066;-71
2021/04/11 11:28:18;;;;;;;7.93;4.57;;;614.50;691.20;;;;;;4976558;28;20062;-72
2021/04/11 11:30:58;;;;;;;9.38;3.75;;;614.60;665.60;;;;;;4981416;28;20027;-73
2021/04/11 11:33:53;;;;;;;6.40;4.30;;;614.40;665.60;;;;;;4974340;28;20085;-72
2021/04/11 11:36:33;;;;;;;7.25;4.03;;;589.70;665.60;;;;;;4904844;29;20080;-72
2021/04/11 11:39:34;;;;;;;9.10;4.63;;;614.50;665.60;;;;;;4878736;29;20032;-72
2021/04/11 11:42:12;;;;;;;7.22;4.53;;;614.90;665.60;;;;;;4904696;29;20093;-72
2021/04/11 11:45:15;;;;;;;7.82;5.50;;;640.00;640.00;;;;;;4901802;29;20496;-72
2021/04/11 11:48:06;;;;;;;8.07;4.82;;;666.00;614.40;;;;;;4832614;29;20613;-72
2021/04/11 11:51:17;;;;;;;6.68;4.28;;;666.20;588.80;;;;;;4832277;29;20030;-72
2021/04/11 11:53:54;;;;;;;5.68;3.83;;;666.10;588.80;;;;;;4792141;29;20051;-72
2021/04/11 11:56:28;;;;;;;11.27;5.18;;;691.80;537.60;;;;;;4801428;29;20126;-72
2021/04/11 11:59:26;;;;;;;7.60;4.63;;;717.00;563.20;;;;;;4824458;29;20042;-72
2021/04/11 12:02:04;;;;;;;9.52;5.47;;;692.10;563.20;;;;;;4852723;29;20046;-72
2021/04/11 12:04:41;;;;;;;9.75;5.22;;;716.90;563.20;;;;;;4855758;29;20041;-72
2021/04/11 12:07:26;;;;;;;12.13;5.50;;;666.30;563.20;;;;;;4853458;29;20037;-72
2021/04/11 12:10:07;;;;;;;10.90;7.20;;;640.80;588.80;;;;;;4850575;29;20398;-72
2021/04/11 12:12:38;;;;;;;9.98;6.20;;;665.60;614.40;;;;;;4866936;29;20044;-72
2021/04/11 12:15:07;;;;;;;7.90;4.60;;;640.40;614.40;;;;;;4882178;29;20021;-72
2021/04/11 12:17:46;;;;;;;8.98;5.07;;;640.10;614.40;;;;;;4886096;29;20041;-72
2021/04/11 12:20:20;;;;;;;7.47;4.50;;;615.20;614.40;;;;;;4875737;29;20029;-72
2021/04/11 12:23:11;;;;;;;8.60;4.30;;;615.30;614.40;;;;;;4871731;29;20037;-72
2021/04/11 12:25:38;;;;;;;9.10;5.80;;;640.00;614.40;;;;;;4925888;29;20043;-72
2021/04/11 12:28:12;;;;;;;8.05;5.65;;;640.00;614.40;;;;;;4939186;29;20040;-72
2021/04/11 12:30:41;;;;;;;9.43;4.63;;;640.10;614.40;;;;;;4969889;28;20056;-71
2021/04/11 12:33:10;;;;;;;8.93;5.70;;;640.00;614.40;;;;;;4982673;28;20176;-72
2021/04/11 12:36:02;;;;;;;8.25;5.10;;;615.20;614.40;;;;;;4996191;28;20122;-71
2021/04/11 12:38:54;;;;;;;7.82;5.32;;;615.10;640.00;;;;;;5007683;28;20364;-71
2021/04/11 12:41:44;;;;;;;8.40;4.70;;;640.00;640.00;;;;;;5059708;28;20024;-72
2021/04/11 12:45:01;;;;;;;9.43;4.03;;;615.30;614.40;;;;;;5059876;28;20079;-72
2021/04/11 12:47:26;;;;;;;6.88;3.63;;;640.00;614.40;;;;;;5021148;28;20048;-72
2021/04/11 12:49:59;;;;;;;9.07;4.85;;;640.00;614.40;;;;;;5021626;28;20044;-72
2021/04/11 12:52:38;;;;;;;6.55;4.35;;;640.10;614.40;;;;;;5019792;28;20112;-72
2021/04/11 12:55:38;;;;;;;6.70;4.43;;;640.20;588.80;;;;;;5019054;28;20055;-72
2021/04/11 12:58:30;;;;;;;9.52;6.43;;;640.70;588.80;;;;;;4989562;28;20053;-72
2021/04/11 13:01:01;;;;;;;9.32;5.60;;;640.20;588.80;;;;;;4969063;28;20512;-72
2021/04/11 13:03:52;;;;;;;6.93;4.60;;;640.00;614.40;;;;;;4970471;28;20904;-72
2021/04/11 13:06:23;;;;;;;11.98;6.35;;;640.00;614.40;;;;;;4970663;28;20019;-72
2021/04/11 13:09:10;;;;;;;7.70;5.97;;;640.00;614.40;;;;;;4970867;28;20038;-73
2021/04/11 13:11:57;;;;;;;7.25;4.50;;;640.30;588.80;;;;;;4972228;28;20038;-71
2021/04/11 13:14:32;;;;;;;11.85;5.00;;;640.80;588.80;;;;;;4956735;28;20777;-71